Time;durP1;ratioP1;P1;durP2;ratioP2;P2;SDS_P1;SDS_P2;PMS_P1;PMS_P2;Temp;Humidity;BMP_temperature;BMP_pressure;BME280_temperature;BME280_humidity;BME280_pressure;Samples;Min_cycle;Max_cycle;Signal;HPM_P1;HPM_P2
2022/06/05 00:01:28;;;;;;;3.55;2.80;;;24.00;56.70;;;;;;5094138;28;20389;-66
2022/06/05 00:03:59;;;;;;;3.63;2.70;;;24.10;56.90;;;;;;5092706;28;20469;-66
2022/06/05 00:06:40;;;;;;;3.10;2.80;;;24.00;56.80;;;;;;5093643;28;20401;-66
2022/06/05 00:09:17;;;;;;;3.83;2.70;;;24.10;56.90;;;;;;5094024;28;20378;-66
2022/06/05 00:12:02;;;;;;;4.75;2.65;;;24.10;56.90;;;;;;5092509;28;20446;-66
2022/06/05 00:14:28;;;;;;;3.10;2.80;;;24.10;56.90;;;;;;5092160;28;20723;-66
2022/06/05 00:16:54;;;;;;;3.23;2.90;;;24.00;56.80;;;;;;5093776;28;20448;-66
2022/06/05 00:19:20;;;;;;;3.05;2.72;;;24.10;56.90;;;;;;5093857;28;20420;-66
2022/06/05 00:21:45;;;;;;;3.78;2.80;;;24.00;56.90;;;;;;5093685;28;20813;-66
2022/06/05 00:24:11;;;;;;;3.47;2.63;;;24.00;56.90;;;;;;5093348;28;20382;-66
2022/06/05 00:27:01;;;;;;;3.63;2.80;;;24.00;56.90;;;;;;5093694;28;20387;-66
2022/06/05 00:29:32;;;;;;;2.65;2.45;;;24.00;56.80;;;;;;5093564;28;20481;-66
2022/06/05 00:32:04;;;;;;;3.20;2.60;;;24.00;56.80;;;;;;5093560;28;20885;-66
2022/06/05 00:34:29;;;;;;;3.38;2.90;;;24.00;56.90;;;;;;5093250;28;20378;-66
2022/06/05 00:37:07;;;;;;;4.20;2.60;;;24.00;56.80;;;;;;5093361;28;21031;-66
2022/06/05 00:39:56;;;;;;;3.67;2.80;;;24.00;56.90;;;;;;5093496;28;20435;-66
2022/06/05 00:42:25;;;;;;;4.00;2.75;;;24.00;56.90;;;;;;5093023;28;20378;-66
2022/06/05 00:44:57;;;;;;;2.95;2.65;;;24.00;56.90;;;;;;5093172;28;20390;-66
2022/06/05 00:47:32;;;;;;;3.47;2.53;;;24.00;56.80;;;;;;5092294;28;20443;-66
2022/06/05 00:50:20;;;;;;;2.97;2.60;;;24.00;56.90;;;;;;5093026;28;20406;-66
2022/06/05 00:52:50;;;;;;;3.33;2.72;;;24.00;56.90;;;;;;5091643;28;20398;-66
2022/06/05 00:55:17;;;;;;;3.40;2.70;;;24.00;56.80;;;;;;5092991;28;20438;-66
2022/06/05 00:57:44;;;;;;;3.60;2.72;;;24.00;56.90;;;;;;5092821;28;20394;-66
2022/06/05 01:00:25;;;;;;;2.90;2.60;;;24.00;56.90;;;;;;5092766;28;20988;-66
2022/06/05 01:02:54;;;;;;;3.17;2.53;;;24.00;56.80;;;;;;5091650;28;20418;-66
2022/06/05 01:05:22;;;;;;;3.60;2.63;;;24.00;56.90;;;;;;5092901;28;20401;-66
2022/06/05 01:07:48;;;;;;;3.35;2.47;;;24.00;56.90;;;;;;5091234;28;20382;-66
2022/06/05 01:10:16;;;;;;;3.40;2.40;;;24.00;57.40;;;;;;5091017;28;20456;-66
2022/06/05 01:13:16;;;;;;;3.20;2.40;;;24.00;56.90;;;;;;5092740;28;20397;-66
2022/06/05 01:16:00;;;;;;;2.60;2.40;;;23.90;56.90;;;;;;5092743;28;20750;-66
2022/06/05 01:18:51;;;;;;;2.63;2.42;;;24.00;56.90;;;;;;5092018;28;20472;-66
2022/06/05 01:21:53;;;;;;;3.42;2.70;;;24.00;56.90;;;;;;5092740;28;20438;-66
2022/06/05 01:24:45;;;;;;;3.65;2.47;;;24.00;56.90;;;;;;5092113;28;20390;-66
2022/06/05 01:27:14;;;;;;;3.75;2.58;;;24.00;56.90;;;;;;5092568;28;20863;-66
2022/06/05 01:29:44;;;;;;;3.70;2.65;;;24.00;56.90;;;;;;5092176;28;20398;-66
2022/06/05 01:32:17;;;;;;;3.00;2.70;;;24.00;56.90;;;;;;5092226;28;20382;-66
2022/06/05 01:34:52;;;;;;;2.85;2.55;;;24.00;56.90;;;;;;5091097;28;20477;-66
2022/06/05 01:37:38;;;;;;;3.67;2.50;;;24.00;56.90;;;;;;5092236;28;20432;-66
2022/06/05 01:40:48;;;;;;;3.25;2.65;;;23.90;56.90;;;;;;5090966;28;20898;-66
2022/06/05 01:43:19;;;;;;;2.90;2.60;;;23.90;56.90;;;;;;5092291;28;20421;-66
2022/06/05 01:45:56;;;;;;;2.67;2.47;;;23.90;56.90;;;;;;5090712;28;20735;-66
2022/06/05 01:48:33;;;;;;;3.42;2.60;;;23.90;56.90;;;;;;5091738;28;20382;-66
2022/06/05 01:51:06;;;;;;;3.03;2.70;;;23.90;56.90;;;;;;5090555;28;20844;-66
2022/06/05 01:53:34;;;;;;;3.50;2.50;;;23.90;56.90;;;;;;5091980;28;20390;-66
2022/06/05 01:56:20;;;;;;;3.73;2.43;;;23.90;56.90;;;;;;5092010;28;20492;-66
2022/06/05 01:59:04;;;;;;;2.97;2.45;;;23.90;56.90;;;;;;5091877;28;20468;-66
2022/06/05 02:01:37;;;;;;;4.43;2.67;;;23.90;56.90;;;;;;5090635;28;20374;-66
2022/06/05 02:04:17;;;;;;;2.73;2.50;;;23.90;57.00;;;;;;5091849;28;20470;-66
2022/06/05 02:06:53;;;;;;;3.23;2.60;;;23.90;56.90;;;;;;5091953;28;20501;-66
2022/06/05 02:09:36;;;;;;;3.15;2.78;;;23.90;57.00;;;;;;5091820;28;20401;-66
2022/06/05 02:12:04;;;;;;;3.30;2.60;;;23.90;56.90;;;;;;5090555;28;20492;-66
2022/06/05 02:14:30;;;;;;;4.05;2.70;;;23.90;56.90;;;;;;5089757;28;20386;-66
2022/06/05 02:16:58;;;;;;;3.05;2.55;;;23.90;57.00;;;;;;5091130;28;20394;-66
2022/06/05 02:19:24;;;;;;;3.00;2.40;;;23.90;57.00;;;;;;5091406;28;20401;-66
2022/06/05 02:21:54;;;;;;;2.83;2.53;;;23.90;57.00;;;;;;5091678;28;20386;-65
2022/06/05 02:24:20;;;;;;;3.30;2.70;;;23.90;57.00;;;;;;5091307;28;20408;-66
2022/06/05 02:26:46;;;;;;;3.05;2.40;;;23.90;57.00;;;;;;5091645;28;20383;-66
2022/06/05 02:29:16;;;;;;;2.60;2.40;;;23.90;57.00;;;;;;5091580;28;20396;-66
2022/06/05 02:31:51;;;;;;;2.55;2.33;;;23.90;57.00;;;;;;5091440;28;20417;-66
2022/06/05 02:34:43;;;;;;;3.38;2.67;;;23.90;57.00;;;;;;5091401;28;20378;-66
2022/06/05 02:37:46;;;;;;;3.07;2.57;;;23.90;57.00;;;;;;5091559;28;20386;-66
2022/06/05 02:40:17;;;;;;;3.03;2.60;;;23.90;57.00;;;;;;5090326;28;20397;-65
2022/06/05 02:43:00;;;;;;;3.40;2.97;;;23.90;57.00;;;;;;5091377;28;20382;-66
2022/06/05 02:45:44;;;;;;;3.47;2.70;;;23.90;57.00;;;;;;5091299;28;20386;-66
2022/06/05 02:48:25;;;;;;;3.78;2.70;;;23.90;57.10;;;;;;5091363;28;20390;-66
2022/06/05 02:51:22;;;;;;;3.22;2.92;;;23.90;57.00;;;;;;5091271;28;20417;-66
2022/06/05 02:53:51;;;;;;;3.13;2.83;;;23.80;56.90;;;;;;5091103;28;20421;-66
2022/06/05 02:56:18;;;;;;;4.35;2.80;;;23.90;57.10;;;;;;5091038;28;20858;-65
2022/06/05 02:58:45;;;;;;;2.95;2.65;;;23.90;57.10;;;;;;5091337;28;20405;-66
2022/06/05 03:03:55;;;;;;;3.30;2.75;;;23.80;57.00;;;;;;5091467;28;20435;-66
2022/06/05 03:06:23;;;;;;;3.72;2.80;;;23.80;57.00;;;;;;5089918;28;21336;-66
2022/06/05 03:08:48;;;;;;;3.77;2.97;;;23.80;57.00;;;;;;5090162;28;20390;-66
2022/06/05 03:11:14;;;;;;;3.28;2.83;;;23.80;57.00;;;;;;5093495;28;20414;-66
2022/06/05 03:13:40;;;;;;;3.33;3.03;;;23.80;57.00;;;;;;5095010;28;20382;-66
2022/06/05 03:16:07;;;;;;;3.13;2.53;;;23.80;57.00;;;;;;5095145;28;20389;-65
2022/06/05 03:18:34;;;;;;;3.13;2.78;;;23.80;57.00;;;;;;5094623;28;20386;-66
2022/06/05 03:21:00;;;;;;;3.33;2.80;;;23.80;57.10;;;;;;5093675;28;20406;-66
2022/06/05 03:23:26;;;;;;;3.83;2.80;;;23.80;57.10;;;;;;5094884;28;20742;-66
2022/06/05 03:25:52;;;;;;;4.57;2.80;;;23.80;57.10;;;;;;5094760;28;20439;-66
2022/06/05 03:28:18;;;;;;;3.47;2.92;;;23.80;57.10;;;;;;5094682;28;20378;-66
2022/06/05 03:30:44;;;;;;;3.40;3.10;;;23.80;57.10;;;;;;5093883;28;20465;-65
2022/06/05 03:33:11;;;;;;;3.40;3.10;;;23.80;57.10;;;;;;5094205;28;20389;-66
2022/06/05 03:35:42;;;;;;;3.33;2.80;;;23.80;57.10;;;;;;5094309;28;20432;-66
2022/06/05 03:38:08;;;;;;;3.10;2.80;;;23.80;57.10;;;;;;5094589;28;20914;-66
2022/06/05 03:40:34;;;;;;;3.78;2.85;;;23.80;57.10;;;;;;5092840;28;20398;-66
2022/06/05 03:43:00;;;;;;;3.20;2.90;;;23.80;57.10;;;;;;5094426;28;20378;-66
2022/06/05 03:45:26;;;;;;;3.20;2.90;;;23.80;57.10;;;;;;5094265;28;20476;-66
2022/06/05 03:47:52;;;;;;;4.90;2.92;;;23.80;57.20;;;;;;5094437;28;20865;-66
2022/06/05 03:50:18;;;;;;;3.58;2.83;;;23.80;57.10;;;;;;5094134;28;20417;-66
2022/06/05 03:52:44;;;;;;;3.00;2.70;;;23.80;57.20;;;;;;5093956;28;20425;-66
2022/06/05 03:55:14;;;;;;;3.20;2.60;;;23.80;57.10;;;;;;5093011;28;20498;-66
2022/06/05 03:57:40;;;;;;;3.58;2.80;;;23.80;57.20;;;;;;5094279;28;20392;-66
2022/06/05 04:00:09;;;;;;;3.22;2.83;;;23.80;57.10;;;;;;5094229;28;20761;-66
2022/06/05 04:02:35;;;;;;;3.95;3.05;;;23.80;57.20;;;;;;5093802;28;20389;-65
2022/06/05 04:05:03;;;;;;;4.43;2.80;;;23.80;57.20;;;;;;5094109;28;20394;-66
2022/06/05 04:07:29;;;;;;;4.07;2.80;;;23.80;57.20;;;;;;5094098;28;20382;-66
2022/06/05 04:09:55;;;;;;;3.38;2.70;;;23.80;57.20;;;;;;5093932;28;20398;-65
2022/06/05 04:12:20;;;;;;;3.53;3.08;;;23.80;57.20;;;;;;5092488;28;20854;-66
2022/06/05 04:14:46;;;;;;;3.50;2.80;;;23.80;57.20;;;;;;5093683;28;20792;-66
2022/06/05 04:17:12;;;;;;;3.58;2.90;;;23.80;57.20;;;;;;5093926;28;20735;-66
2022/06/05 04:19:38;;;;;;;3.70;3.00;;;23.80;57.20;;;;;;5093693;28;20386;-66
2022/06/05 04:22:04;;;;;;;3.88;3.05;;;23.80;57.20;;;;;;5092552;28;20386;-66
2022/06/05 04:24:30;;;;;;;3.53;2.80;;;23.80;57.20;;;;;;5093117;28;20386;-66
2022/06/05 04:26:55;;;;;;;3.07;2.73;;;23.80;57.20;;;;;;5093685;28;20471;-66
2022/06/05 04:29:21;;;;;;;3.33;3.03;;;23.80;57.20;;;;;;5093510;28;20383;-66
2022/06/05 04:31:48;;;;;;;3.97;2.90;;;23.80;57.20;;;;;;5093350;28;20422;-66
2022/06/05 04:34:17;;;;;;;3.30;3.00;;;23.80;57.20;;;;;;5093516;28;20929;-66
2022/06/05 04:36:43;;;;;;;3.30;3.00;;;23.80;57.20;;;;;;5092953;28;20382;-66
2022/06/05 04:39:09;;;;;;;3.75;3.10;;;23.80;57.20;;;;;;5093493;28;20382;-66
2022/06/05 04:41:36;;;;;;;3.60;3.00;;;23.80;57.20;;;;;;5093458;28;20885;-66
2022/06/05 04:44:02;;;;;;;3.35;3.05;;;23.80;57.30;;;;;;5093177;28;20750;-65
2022/06/05 04:46:28;;;;;;;4.23;3.10;;;23.80;57.30;;;;;;5092482;28;20389;-66
2022/06/05 04:48:55;;;;;;;3.30;2.90;;;23.80;57.20;;;;;;5092669;28;20386;-66
2022/06/05 04:51:22;;;;;;;3.95;3.00;;;23.80;57.30;;;;;;5092664;28;20823;-65
2022/06/05 04:53:49;;;;;;;3.40;3.10;;;23.80;57.20;;;;;;5092996;28;20414;-66
2022/06/05 04:56:18;;;;;;;3.85;3.17;;;23.80;57.20;;;;;;5093114;28;20398;-66
2022/06/05 04:58:44;;;;;;;3.90;3.00;;;23.80;57.20;;;;;;5092591;28;20532;-66
2022/06/05 05:01:26;;;;;;;3.40;3.10;;;23.80;57.30;;;;;;5092876;28;20394;-65
2022/06/05 05:03:59;;;;;;;3.60;2.83;;;23.80;57.20;;;;;;5092946;28;20388;-66
2022/06/05 05:06:25;;;;;;;3.35;3.05;;;23.80;57.20;;;;;;5092691;28;20854;-65
2022/06/05 05:08:52;;;;;;;3.60;2.92;;;23.90;57.30;;;;;;5092791;28;20473;-66
2022/06/05 05:11:18;;;;;;;2.97;2.60;;;23.80;57.20;;;;;;5092616;28;20428;-66
2022/06/05 05:13:44;;;;;;;3.97;3.00;;;23.80;57.20;;;;;;5092683;28;20374;-66
2022/06/05 05:16:09;;;;;;;3.67;3.00;;;23.80;57.20;;;;;;5091406;28;20439;-65
2022/06/05 05:18:36;;;;;;;4.05;2.75;;;23.70;57.10;;;;;;5092168;28;20409;-66
2022/06/05 05:21:11;;;;;;;3.25;2.83;;;23.80;57.10;;;;;;5092682;28;20398;-66
2022/06/05 05:23:37;;;;;;;3.40;2.50;;;23.80;57.10;;;;;;5092567;28;20869;-65
2022/06/05 05:26:09;;;;;;;3.30;3.00;;;23.80;57.20;;;;;;5091231;28;20450;-66
2022/06/05 05:28:35;;;;;;;3.45;2.78;;;23.80;57.10;;;;;;5092091;28;20382;-66
2022/06/05 05:31:01;;;;;;;3.17;2.63;;;23.90;57.20;;;;;;5092396;28;20563;-66
2022/06/05 05:33:26;;;;;;;3.13;2.83;;;23.90;57.00;;;;;;5092001;28;20378;-66
2022/06/05 05:35:53;;;;;;;3.23;2.90;;;23.90;57.00;;;;;;5092420;28;20393;-66
2022/06/05 05:38:18;;;;;;;4.20;2.87;;;23.90;57.20;;;;;;5092339;28;20869;-65
2022/06/05 05:43:28;;;;;;;3.40;2.88;;;23.90;57.00;;;;;;5093461;28;20381;-67
2022/06/05 05:45:54;;;;;;;3.37;3.07;;;23.90;57.10;;;;;;5092801;28;20390;-67
2022/06/05 05:48:20;;;;;;;3.08;2.78;;;23.90;57.00;;;;;;5089952;28;20901;-67
2022/06/05 05:50:45;;;;;;;5.43;2.93;;;23.90;57.40;;;;;;5091384;28;20425;-66
2022/06/05 05:53:12;;;;;;;5.43;2.72;;;23.90;56.30;;;;;;5091781;28;20878;-66
2022/06/05 05:55:39;;;;;;;6.70;5.30;;;24.00;55.80;;;;;;5091697;28;20402;-66
2022/06/05 05:58:05;;;;;;;6.27;4.30;;;24.00;57.00;;;;;;5091623;28;20469;-66
2022/06/05 06:00:31;;;;;;;6.55;4.05;;;24.10;57.30;;;;;;5091181;28;20531;-66
2022/06/05 06:02:57;;;;;;;10.38;7.10;;;24.10;57.50;;;;;;5090076;28;20386;-66
2022/06/05 06:05:23;;;;;;;6.22;4.55;;;24.10;58.80;;;;;;5090832;28;20732;-66
2022/06/05 06:07:49;;;;;;;7.22;3.97;;;24.20;58.20;;;;;;5091308;28;20388;-66
2022/06/05 06:10:15;;;;;;;5.43;3.70;;;24.20;57.90;;;;;;5091464;28;20410;-66
2022/06/05 06:12:41;;;;;;;6.32;3.88;;;24.20;58.10;;;;;;5090990;28;20390;-66
2022/06/05 06:15:08;;;;;;;6.18;3.65;;;24.20;58.00;;;;;;5091512;28;20461;-66
2022/06/05 06:17:34;;;;;;;5.25;3.63;;;24.20;58.00;;;;;;5091064;28;20834;-66
2022/06/05 06:19:59;;;;;;;5.65;3.80;;;24.30;58.10;;;;;;5091576;28;20420;-67
2022/06/05 06:22:25;;;;;;;5.97;3.60;;;24.40;58.40;;;;;;5091649;28;20394;-66
2022/06/05 06:24:52;;;;;;;8.10;3.43;;;24.40;58.30;;;;;;5090900;28;20378;-66
2022/06/05 06:27:18;;;;;;;6.03;3.85;;;24.40;58.20;;;;;;5091499;28;20397;-66
2022/06/05 06:29:44;;;;;;;9.55;3.60;;;24.40;58.00;;;;;;5090903;28;20743;-66
2022/06/05 06:32:09;;;;;;;10.43;3.85;;;24.40;58.20;;;;;;5091352;28;20401;-67
2022/06/05 06:34:35;;;;;;;7.70;3.80;;;24.40;58.20;;;;;;5090845;28;20393;-67
2022/06/05 06:37:01;;;;;;;14.55;3.92;;;24.40;58.40;;;;;;5091283;28;20394;-66
2022/06/05 06:39:28;;;;;;;8.47;3.70;;;24.40;58.60;;;;;;5091325;28;20453;-66
2022/06/05 06:41:54;;;;;;;13.53;4.23;;;24.50;58.50;;;;;;5091105;28;20382;-67
2022/06/05 06:44:21;;;;;;;9.37;4.40;;;24.60;58.60;;;;;;5092260;28;20385;-67
2022/06/05 06:46:47;;;;;;;9.40;4.40;;;24.60;58.60;;;;;;5094913;28;20401;-66
2022/06/05 06:49:13;;;;;;;10.02;4.00;;;24.60;58.50;;;;;;5095320;28;20386;-66
2022/06/05 06:51:39;;;;;;;9.82;4.30;;;24.70;58.60;;;;;;5095026;28;20489;-66
2022/06/05 06:54:04;;;;;;;7.67;4.07;;;24.70;58.40;;;;;;5102605;28;20495;-66
2022/06/05 06:56:33;;;;;;;8.95;3.95;;;24.70;58.60;;;;;;5100168;28;20401;-67
2022/06/05 06:59:01;;;;;;;7.18;4.13;;;24.70;58.20;;;;;;5095053;28;20916;-67
2022/06/05 07:01:27;;;;;;;6.78;4.00;;;24.70;58.20;;;;;;5093796;28;20886;-67
2022/06/05 07:03:52;;;;;;;8.10;3.50;;;24.70;57.90;;;;;;5094574;28;20386;-68
2022/06/05 07:06:20;;;;;;;6.82;3.45;;;24.80;57.50;;;;;;5094897;28;20405;-67
2022/06/05 07:08:47;;;;;;;5.45;3.90;;;24.80;57.30;;;;;;5094545;28;20796;-67
2022/06/05 07:11:14;;;;;;;5.50;3.70;;;24.80;57.10;;;;;;5094609;28;20432;-67
2022/06/05 07:13:40;;;;;;;7.20;3.80;;;24.80;57.10;;;;;;5093470;28;20463;-67
2022/06/05 07:16:08;;;;;;;7.28;3.75;;;24.80;57.30;;;;;;5094407;28;20414;-67
2022/06/05 07:18:34;;;;;;;5.15;3.30;;;24.80;57.30;;;;;;5111383;28;20373;-67
2022/06/05 07:21:11;;;;;;;6.55;3.80;;;24.90;57.90;;;;;;5113167;28;20454;-67
2022/06/05 07:23:37;;;;;;;7.30;3.50;;;24.90;57.40;;;;;;5090690;28;20377;-67
2022/06/05 07:26:03;;;;;;;6.90;3.50;;;25.00;57.30;;;;;;5093515;28;20390;-67
2022/06/05 07:28:29;;;;;;;5.13;3.50;;;25.00;57.30;;;;;;5093042;28;20397;-67
2022/06/05 07:30:55;;;;;;;6.10;3.40;;;25.10;57.20;;;;;;5094018;28;20422;-67
2022/06/05 07:33:20;;;;;;;5.43;3.73;;;25.10;57.00;;;;;;5094123;28;20432;-67
2022/06/05 07:35:54;;;;;;;5.30;3.22;;;25.10;56.80;;;;;;5094559;28;20388;-67
2022/06/05 07:38:19;;;;;;;5.47;3.45;;;25.10;56.90;;;;;;5093889;28;20434;-67
2022/06/05 07:40:46;;;;;;;4.93;3.57;;;25.10;56.70;;;;;;5092284;28;20480;-67
2022/06/05 07:43:11;;;;;;;4.82;3.70;;;25.10;56.80;;;;;;5093120;28;20412;-67
2022/06/05 07:45:37;;;;;;;5.78;3.90;;;25.20;56.90;;;;;;5090146;28;20868;-67
2022/06/05 07:48:04;;;;;;;5.47;3.50;;;25.10;56.90;;;;;;5076794;28;20410;-67
2022/06/05 07:50:30;;;;;;;4.80;3.70;;;25.00;56.90;;;;;;5073558;28;20525;-66
2022/06/05 07:55:40;;;;;;;5.13;3.20;;;24.90;56.90;;;;;;5073212;28;20395;-67
2022/06/05 07:58:05;;;;;;;6.47;3.63;;;24.90;56.90;;;;;;5085826;28;20390;-67
2022/06/05 08:00:32;;;;;;;5.17;3.47;;;24.80;56.80;;;;;;5093802;28;20469;-66
2022/06/05 08:02:57;;;;;;;9.53;3.60;;;24.80;56.70;;;;;;5092741;28;20382;-67
2022/06/05 08:05:23;;;;;;;9.57;3.70;;;24.80;56.80;;;;;;5093637;28;20515;-67
2022/06/05 08:07:49;;;;;;;7.60;3.50;;;24.80;56.70;;;;;;5093611;28;20515;-67
2022/06/05 08:10:15;;;;;;;7.68;3.63;;;24.80;56.80;;;;;;5090132;28;20403;-67
2022/06/05 08:12:41;;;;;;;8.27;4.00;;;24.80;56.90;;;;;;5084205;28;20870;-67
2022/06/05 08:15:12;;;;;;;6.45;3.50;;;24.80;56.90;;;;;;5093321;28;20449;-67
2022/06/05 08:17:38;;;;;;;5.65;3.47;;;24.70;56.80;;;;;;5093474;28;20497;-67
2022/06/05 08:20:07;;;;;;;7.13;3.70;;;24.70;56.70;;;;;;5093409;28;20552;-67
2022/06/05 08:22:33;;;;;;;7.13;3.50;;;24.70;56.70;;;;;;5093132;28;20419;-67
2022/06/05 08:24:59;;;;;;;4.95;3.72;;;24.70;56.60;;;;;;5092855;28;20390;-67
2022/06/05 08:27:26;;;;;;;7.72;3.50;;;24.70;56.60;;;;;;5093463;28;20386;-67
2022/06/05 08:29:55;;;;;;;6.63;3.70;;;24.70;56.60;;;;;;5093189;28;20375;-67
2022/06/05 08:32:22;;;;;;;6.68;3.85;;;24.70;56.50;;;;;;5090514;28;20437;-67
2022/06/05 08:34:48;;;;;;;4.53;3.38;;;24.70;56.50;;;;;;5097280;28;20374;-67
2022/06/05 08:42:47;;;;;;;4.72;3.53;;;24.70;56.30;;;;;;5092834;28;20448;-67
2022/06/05 08:45:34;;;;;;;4.90;3.70;;;24.70;56.30;;;;;;5099986;28;20464;-67
2022/06/05 08:48:05;;;;;;;6.43;3.70;;;24.70;56.30;;;;;;5095413;28;20412;-67
2022/06/05 08:50:50;;;;;;;4.68;3.75;;;24.70;56.20;;;;;;5092913;28;20910;-67
2022/06/05 08:53:59;;;;;;;5.38;3.72;;;24.70;56.20;;;;;;5092747;28;20405;-67
2022/06/05 08:56:48;;;;;;;5.93;3.40;;;24.70;56.20;;;;;;5072023;28;20405;-67
2022/06/05 08:59:22;;;;;;;4.15;3.42;;;24.70;56.10;;;;;;5094263;28;20389;-67
2022/06/05 09:01:57;;;;;;;5.03;3.53;;;24.70;56.10;;;;;;5112994;28;20997;-67
2022/06/05 09:04:50;;;;;;;5.45;3.40;;;24.70;56.00;;;;;;5113275;28;20392;-66
2022/06/05 09:07:36;;;;;;;4.68;3.60;;;24.70;56.00;;;;;;5111026;28;20385;-66
2022/06/05 09:10:15;;;;;;;5.18;3.42;;;24.80;56.00;;;;;;5113050;28;20392;-67
2022/06/05 09:12:48;;;;;;;5.30;3.60;;;24.80;56.00;;;;;;5111056;28;20439;-67
2022/06/05 09:15:33;;;;;;;5.10;3.50;;;24.80;56.00;;;;;;5112961;28;20420;-67
2022/06/05 09:18:00;;;;;;;5.28;3.70;;;24.70;55.80;;;;;;5111621;28;20392;-67
2022/06/05 09:20:55;;;;;;;4.38;3.38;;;24.80;56.50;;;;;;5111579;28;20396;-67
2022/06/05 09:23:31;;;;;;;4.68;3.58;;;24.80;55.90;;;;;;5111506;28;20380;-67
2022/06/05 09:26:10;;;;;;;3.88;3.33;;;24.80;55.90;;;;;;5111498;28;20457;-67
2022/06/05 09:28:51;;;;;;;5.57;3.65;;;24.80;55.80;;;;;;5111179;28;20890;-66
2022/06/05 09:31:38;;;;;;;5.03;3.88;;;24.80;55.70;;;;;;5111124;28;20412;-66
2022/06/05 09:34:14;;;;;;;3.88;3.47;;;24.80;55.80;;;;;;5111313;28;20396;-67
2022/06/05 09:36:47;;;;;;;4.50;3.40;;;24.80;55.80;;;;;;5111079;28;20914;-66
2022/06/05 09:39:29;;;;;;;4.47;3.60;;;24.80;55.70;;;;;;5111121;28;20498;-67
2022/06/05 09:42:09;;;;;;;4.97;3.80;;;24.80;55.80;;;;;;5112391;28;20388;-67
2022/06/05 09:45:03;;;;;;;4.80;3.50;;;24.80;55.60;;;;;;5110797;28;20468;-67
2022/06/05 09:47:41;;;;;;;9.40;7.10;;;24.80;55.80;;;;;;5112444;28;20392;-67
2022/06/05 09:50:25;;;;;;;12.88;10.40;;;24.80;57.60;;;;;;5112378;28;20408;-67
2022/06/05 09:52:51;;;;;;;8.10;6.68;;;24.90;58.50;;;;;;5110018;28;20903;-67
2022/06/05 09:55:35;;;;;;;8.25;5.68;;;24.90;57.80;;;;;;5112202;28;20395;-68
2022/06/05 09:58:27;;;;;;;5.27;4.70;;;24.90;57.10;;;;;;5110740;28;20894;-67
2022/06/05 10:00:59;;;;;;;6.72;4.70;;;24.90;56.80;;;;;;5111080;28;20454;-67
2022/06/05 10:03:41;;;;;;;5.80;4.50;;;24.90;56.40;;;;;;5111721;28;20433;-67
2022/06/05 10:06:23;;;;;;;5.95;4.30;;;25.00;56.40;;;;;;5110199;28;20432;-67
2022/06/05 10:09:13;;;;;;;5.30;4.80;;;24.90;56.10;;;;;;5110995;28;20384;-67
2022/06/05 10:12:00;;;;;;;6.18;4.50;;;25.00;56.40;;;;;;5111718;28;20495;-66
2022/06/05 10:14:50;;;;;;;5.43;4.50;;;25.00;56.40;;;;;;5110527;28;20388;-66
2022/06/05 10:17:30;;;;;;;6.57;4.65;;;25.00;56.80;;;;;;5100236;28;20462;-65
2022/06/05 10:20:27;;;;;;;7.80;4.90;;;25.00;57.00;;;;;;5089921;28;20385;-66
2022/06/05 10:23:03;;;;;;;7.65;4.80;;;25.00;57.10;;;;;;5090560;28;20386;-65
2022/06/05 10:25:29;;;;;;;6.35;4.53;;;25.10;57.10;;;;;;5090428;28;20382;-66
2022/06/05 10:28:04;;;;;;;5.00;4.40;;;25.10;56.90;;;;;;5100558;28;20922;-66
2022/06/05 10:30:33;;;;;;;5.63;4.30;;;25.10;56.60;;;;;;5109540;28;20400;-66
2022/06/05 10:33:06;;;;;;;7.05;4.97;;;25.10;56.70;;;;;;5106932;28;20389;-65
2022/06/05 10:35:44;;;;;;;5.78;4.70;;;25.10;56.80;;;;;;5111506;28;20856;-65
2022/06/05 10:38:32;;;;;;;6.22;4.75;;;25.10;56.80;;;;;;5111554;28;20541;-65
2022/06/05 10:41:15;;;;;;;5.47;4.60;;;25.10;56.70;;;;;;5089364;28;20499;-65
2022/06/05 10:43:42;;;;;;;5.88;4.72;;;25.10;56.60;;;;;;5106515;28;20389;-66
2022/06/05 10:46:28;;;;;;;6.03;4.60;;;25.10;56.50;;;;;;5089057;28;20416;-65
2022/06/05 10:49:06;;;;;;;5.32;4.30;;;25.10;56.50;;;;;;5087575;28;20382;-66
2022/06/05 10:51:43;;;;;;;5.87;4.73;;;25.00;56.40;;;;;;5089441;28;20530;-65
2022/06/05 10:54:15;;;;;;;5.20;4.70;;;25.10;56.40;;;;;;5088224;28;20805;-65
2022/06/05 10:56:58;;;;;;;5.97;4.95;;;25.10;56.50;;;;;;5087613;28;20394;-65
2022/06/05 10:59:45;;;;;;;6.68;5.00;;;25.00;56.40;;;;;;5090740;28;20893;-65
2022/06/05 11:02:28;;;;;;;6.57;4.57;;;25.00;56.50;;;;;;5091023;28;20425;-65
2022/06/05 11:05:17;;;;;;;6.80;4.75;;;25.10;56.40;;;;;;5090334;28;20386;-65
2022/06/05 11:08:07;;;;;;;5.30;4.80;;;25.00;56.40;;;;;;5033933;28;20396;-65
2022/06/05 11:13:54;;;;;;;10.98;4.93;;;25.10;56.40;;;;;;5090721;28;20385;-65
2022/06/05 11:16:42;;;;;;;5.38;4.70;;;25.10;56.50;;;;;;5090281;28;20860;-65
2022/06/05 11:19:44;;;;;;;6.78;5.07;;;25.10;56.50;;;;;;5090424;28;20389;-65
2022/06/05 11:22:15;;;;;;;5.47;4.90;;;25.10;56.40;;;;;;5089652;28;20394;-67
2022/06/05 11:24:56;;;;;;;6.63;4.90;;;25.00;56.30;;;;;;5090423;28;20382;-66
2022/06/05 11:27:36;;;;;;;5.53;5.03;;;25.00;56.40;;;;;;5088709;28;20484;-69
2022/06/05 11:30:05;;;;;;;7.03;5.00;;;25.00;56.30;;;;;;5086651;28;20389;-66
2022/06/05 11:32:33;;;;;;;7.82;4.88;;;25.00;56.30;;;;;;5089932;28;20397;-66
2022/06/05 11:35:11;;;;;;;5.90;5.30;;;25.10;56.30;;;;;;5092535;28;20479;-65
2022/06/05 11:37:49;;;;;;;6.37;5.23;;;25.10;56.50;;;;;;5094177;28;20913;-65
2022/06/05 11:40:25;;;;;;;5.77;5.17;;;25.00;56.50;;;;;;5093005;28;20401;-65
2022/06/05 11:43:15;;;;;;;7.47;5.37;;;25.00;56.40;;;;;;5093884;28;20511;-65
2022/06/05 11:46:08;;;;;;;8.13;5.30;;;25.00;56.50;;;;;;5093220;28;20382;-65
2022/06/05 11:49:10;;;;;;;6.65;5.53;;;25.00;56.70;;;;;;5094339;28;20404;-66
2022/06/05 11:52:07;;;;;;;7.20;5.43;;;25.00;56.80;;;;;;5094611;28;20410;-66
2022/06/05 11:55:00;;;;;;;7.23;5.67;;;25.10;56.70;;;;;;5094367;28;20558;-66
2022/06/05 11:57:36;;;;;;;7.00;5.70;;;25.20;56.80;;;;;;5094358;28;20385;-67
2022/06/05 12:00:12;;;;;;;6.53;5.70;;;25.20;56.60;;;;;;5093486;28;20432;-66
2022/06/05 12:02:53;;;;;;;6.72;6.00;;;25.30;56.60;;;;;;5092933;28;20918;-66
2022/06/05 12:05:26;;;;;;;8.18;6.35;;;25.30;56.60;;;;;;5091100;28;20390;-66
2022/06/05 12:08:01;;;;;;;7.38;6.18;;;25.30;56.50;;;;;;5093539;28;20435;-66
2022/06/05 12:10:30;;;;;;;9.38;6.20;;;25.40;56.70;;;;;;5093489;28;20898;-66
2022/06/05 12:13:30;;;;;;;9.90;6.28;;;25.40;56.60;;;;;;5091265;28;20382;-66
2022/06/05 12:16:09;;;;;;;8.45;6.10;;;25.50;56.60;;;;;;5091406;28;20390;-66
2022/06/05 12:18:54;;;;;;;8.03;6.17;;;25.50;56.40;;;;;;5091577;28;20473;-66
2022/06/05 12:21:26;;;;;;;8.52;6.40;;;25.60;56.40;;;;;;5090471;28;20379;-66
2022/06/05 12:24:03;;;;;;;6.88;6.15;;;25.60;56.40;;;;;;5092191;28;20917;-66
2022/06/05 12:26:39;;;;;;;10.30;6.20;;;25.60;56.40;;;;;;5091119;28;20390;-66
2022/06/05 12:29:21;;;;;;;7.85;5.90;;;25.60;56.20;;;;;;5090775;28;20453;-67
2022/06/05 12:31:54;;;;;;;7.00;6.15;;;25.60;56.30;;;;;;5094065;28;20410;-66
2022/06/05 12:34:29;;;;;;;9.27;6.90;;;25.70;56.60;;;;;;5093913;28;20734;-66
2022/06/05 12:37:51;;;;;;;9.85;6.68;;;25.70;56.40;;;;;;5092535;28;20477;-66
2022/06/05 12:40:28;;;;;;;10.25;7.97;;;25.70;56.20;;;;;;5048297;28;20394;-66
2022/06/05 12:43:07;;;;;;;12.77;11.57;;;25.70;56.50;;;;;;5090049;28;20389;-66
2022/06/05 12:45:37;;;;;;;18.40;16.73;;;25.70;56.70;;;;;;5090965;28;20390;-65
2022/06/05 12:48:22;;;;;;;26.23;24.13;;;25.80;57.00;;;;;;5094351;28;20383;-66
2022/06/05 12:51:18;;;;;;;31.30;28.70;;;25.80;57.30;;;;;;5093202;28;20405;-65
2022/06/05 12:54:01;;;;;;;37.60;34.60;;;25.90;57.50;;;;;;5092272;28;20398;-65
2022/06/05 12:56:43;;;;;;;43.00;39.70;;;25.90;57.70;;;;;;5089811;28;20963;-66
2022/06/05 12:59:34;;;;;;;50.40;46.50;;;25.90;58.30;;;;;;5092672;28;20382;-65
2022/06/05 13:02:13;;;;;;;57.72;53.53;;;26.00;58.70;;;;;;5092178;28;20386;-66
2022/06/05 13:05:11;;;;;;;62.58;57.97;;;26.00;59.20;;;;;;5093578;28;20381;-66
2022/06/05 13:07:49;;;;;;;74.93;69.53;;;26.00;59.70;;;;;;5068330;28;20920;-66
2022/06/05 13:10:27;;;;;;;70.18;64.97;;;26.20;61.60;;;;;;5090322;28;20409;-66
2022/06/05 13:13:28;;;;;;;58.37;54.20;;;26.20;60.50;;;;;;5092787;28;20432;-66
2022/06/05 13:16:00;;;;;;;52.92;49.00;;;26.10;59.80;;;;;;5093638;28;20378;-66
2022/06/05 13:18:38;;;;;;;60.03;55.50;;;26.20;60.00;;;;;;5092905;28;20386;-65
2022/06/05 13:21:28;;;;;;;52.10;48.20;;;26.20;60.70;;;;;;5090918;28;20390;-65
2022/06/05 13:24:09;;;;;;;43.85;40.55;;;26.50;60.50;;;;;;5092594;28;20386;-66
2022/06/05 13:26:51;;;;;;;41.20;38.05;;;26.50;59.70;;;;;;5092556;28;20885;-66
2022/06/05 13:29:47;;;;;;;37.35;34.40;;;26.50;59.50;;;;;;5091132;28;20397;-65
2022/06/05 13:32:22;;;;;;;34.97;32.13;;;26.40;59.40;;;;;;5089039;28;20449;-66
2022/06/05 13:34:59;;;;;;;32.90;30.27;;;26.40;59.10;;;;;;5089961;28;20434;-66
2022/06/05 13:37:33;;;;;;;29.65;27.40;;;26.30;58.80;;;;;;5090943;28;20388;-66